createdAt,value
2023-02-26T00:01:42.078Z,3.35
2023-02-26T00:04:10.562Z,2.87
2023-02-26T00:06:46.075Z,12.53
2023-02-26T00:11:41.439Z,21.57
2023-02-26T00:14:14.793Z,21.93
2023-02-26T00:16:47.071Z,20.57
2023-02-26T00:19:15.009Z,19.42
2023-02-26T00:21:43.228Z,25.12
2023-02-26T00:24:11.115Z,24.80
2023-02-26T00:26:39.030Z,24.25
2023-02-26T00:29:07.513Z,20.72
2023-02-26T00:31:35.791Z,22.32
2023-02-26T00:34:04.169Z,22.10
2023-02-26T00:36:52.541Z,25.65
2023-02-26T00:39:43.470Z,21.07
2023-02-26T00:42:12.581Z,23.05
2023-02-26T00:44:41.253Z,21.95
2023-02-26T00:47:32.294Z,19.20
2023-02-26T00:50:14.035Z,15.93
2023-02-26T00:53:05.647Z,15.88
2023-02-26T00:55:33.525Z,15.63
2023-02-26T00:58:01.430Z,15.63
2023-02-26T01:00:31.090Z,14.95
2023-02-26T01:02:59.457Z,18.17
2023-02-26T01:05:28.153Z,18.05
2023-02-26T01:08:31.841Z,16.45
2023-02-26T01:11:00.406Z,21.35
2023-02-26T01:13:28.618Z,21.62
2023-02-26T01:16:02.357Z,24.00
2023-02-26T01:18:48.129Z,19.50
2023-02-26T01:21:21.285Z,35.98
2023-02-26T01:23:51.968Z,17.45
2023-02-26T01:26:24.853Z,13.48
2023-02-26T01:28:54.020Z,15.00
2023-02-26T01:31:48.437Z,10.10
2023-02-26T01:34:28.187Z,7.47
2023-02-26T01:37:04.190Z,7.00
2023-02-26T01:39:52.860Z,7.75
2023-02-26T01:42:27.430Z,7.62
2023-02-26T01:45:17.630Z,7.40
2023-02-26T01:48:04.924Z,8.58
2023-02-26T01:50:35.606Z,7.78
2023-02-26T01:53:24.952Z,8.58
2023-02-26T01:56:06.277Z,7.47
2023-02-26T01:58:36.860Z,9.20
2023-02-26T02:01:06.175Z,15.65
2023-02-26T02:03:38.815Z,19.73
2023-02-26T02:06:11.903Z,27.37
2023-02-26T02:08:40.913Z,27.87
2023-02-26T02:11:11.506Z,19.67
2023-02-26T02:14:22.829Z,13.95
2023-02-26T02:17:05.050Z,14.70
2023-02-26T02:19:53.050Z,10.50
2023-02-26T02:22:41.289Z,20.00
2023-02-26T02:25:41.635Z,23.83
2023-02-26T02:28:39.173Z,16.23
2023-02-26T02:31:12.619Z,10.43
2023-02-26T02:33:54.860Z,15.15
2023-02-26T02:36:46.129Z,14.43
2023-02-26T02:39:46.584Z,17.00
2023-02-26T02:42:28.494Z,16.02
2023-02-26T02:45:04.595Z,14.55
2023-02-26T02:47:35.243Z,9.00
2023-02-26T02:50:26.942Z,8.23
2023-02-26T02:53:00.743Z,5.87
2023-02-26T02:55:33.977Z,6.58
2023-02-26T02:58:10.169Z,5.90
2023-02-26T03:00:42.289Z,6.35
2023-02-26T03:03:43.042Z,4.95
2023-02-26T03:06:11.118Z,46.60
2023-02-26T03:08:41.964Z,29.00
2023-02-26T03:11:10.107Z,10.15
2023-02-26T03:13:40.567Z,6.15
2023-02-26T03:16:34.923Z,7.28
2023-02-26T03:19:25.925Z,8.05
2023-02-26T03:22:08.575Z,5.65
2023-02-26T03:25:12.055Z,5.72
2023-02-26T03:28:03.189Z,5.75
2023-02-26T03:30:39.399Z,7.37
2023-02-26T03:33:21.738Z,5.35
2023-02-26T03:36:09.781Z,5.92
2023-02-26T03:38:46.915Z,5.40
2023-02-26T03:41:31.884Z,6.90
2023-02-26T03:44:10.462Z,6.27
2023-02-26T03:46:46.270Z,5.53
2023-02-26T03:49:22.285Z,6.75
2023-02-26T03:51:52.178Z,5.20
2023-02-26T03:54:38.607Z,7.40
2023-02-26T03:57:25.449Z,5.22
2023-02-26T03:59:55.000Z,6.05
2023-02-26T04:02:51.256Z,6.25
2023-02-26T04:05:35.722Z,5.00
2023-02-26T04:08:03.849Z,6.50
2023-02-26T04:10:54.618Z,8.45
2023-02-26T04:13:23.093Z,5.33
2023-02-26T04:15:51.753Z,7.62
2023-02-26T04:18:19.444Z,7.65
2023-02-26T04:20:47.068Z,8.63
2023-02-26T04:23:14.629Z,13.55
2023-02-26T04:25:42.442Z,14.58
2023-02-26T04:28:11.438Z,13.72
2023-02-26T04:30:39.312Z,8.13
2023-02-26T04:33:07.775Z,8.55
2023-02-26T04:35:35.581Z,6.30
2023-02-26T04:38:05.896Z,8.63
2023-02-26T04:40:33.540Z,10.00
2023-02-26T04:43:01.517Z,8.98
2023-02-26T04:45:31.030Z,9.38
2023-02-26T04:47:58.634Z,7.53
2023-02-26T04:50:26.459Z,6.50
2023-02-26T04:52:54.451Z,8.28
2023-02-26T04:55:22.450Z,8.88
2023-02-26T04:57:50.202Z,6.45
2023-02-26T05:00:19.847Z,7.60
2023-02-26T05:02:48.295Z,6.30
2023-02-26T05:05:16.127Z,7.75
2023-02-26T05:07:43.805Z,8.15
2023-02-26T05:10:12.472Z,7.20
2023-02-26T05:12:41.163Z,7.25
2023-02-26T05:15:09.560Z,7.05
2023-02-26T05:17:37.400Z,7.70
2023-02-26T05:20:09.071Z,7.03
2023-02-26T05:22:38.628Z,6.47
2023-02-26T05:25:07.405Z,6.35
2023-02-26T05:27:35.120Z,3.95
2023-02-26T05:30:04.304Z,5.25
2023-02-26T05:32:32.081Z,5.90
2023-02-26T05:35:00.020Z,5.78
2023-02-26T05:37:27.961Z,7.95
2023-02-26T05:39:55.593Z,6.00
2023-02-26T05:42:23.380Z,8.43
2023-02-26T05:44:51.429Z,6.92
2023-02-26T05:47:19.302Z,9.15
2023-02-26T05:49:47.068Z,9.75
2023-02-26T05:52:15.193Z,10.18
2023-02-26T05:54:42.895Z,10.08
2023-02-26T05:57:10.826Z,10.18
2023-02-26T05:59:38.580Z,9.05
2023-02-26T06:02:06.678Z,9.13
2023-02-26T06:04:35.019Z,8.28
2023-02-26T06:07:03.407Z,9.33
2023-02-26T06:09:31.081Z,11.12
2023-02-26T06:11:58.940Z,10.70
2023-02-26T06:14:26.840Z,10.88
2023-02-26T06:16:54.652Z,12.23
2023-02-26T06:19:22.715Z,10.13
2023-02-26T06:21:50.594Z,10.95
2023-02-26T06:24:18.549Z,9.00
2023-02-26T06:26:46.391Z,6.80
2023-02-26T06:29:14.202Z,7.55
2023-02-26T06:31:42.136Z,8.13
2023-02-26T06:34:10.269Z,8.38
2023-02-26T06:36:38.392Z,11.22
2023-02-26T06:39:07.549Z,9.18
2023-02-26T06:41:35.791Z,7.33
2023-02-26T06:44:04.024Z,9.88
2023-02-26T06:46:31.803Z,16.73
2023-02-26T06:48:59.913Z,12.35
2023-02-26T06:51:27.809Z,10.10
2023-02-26T06:53:55.701Z,17.30
2023-02-26T06:56:27.580Z,11.03
2023-02-26T06:58:56.059Z,9.33
2023-02-26T07:01:24.210Z,9.03
2023-02-26T07:03:51.930Z,12.05
2023-02-26T07:06:27.555Z,10.60
2023-02-26T07:08:49.345Z,11.00
2023-02-26T07:11:17.071Z,9.53
2023-02-26T07:13:44.877Z,10.15
2023-02-26T07:16:12.863Z,10.15
2023-02-26T07:18:40.602Z,11.20
2023-02-26T07:21:09.126Z,14.30
2023-02-26T07:23:37.025Z,19.30
2023-02-26T07:26:05.212Z,16.27
2023-02-26T07:28:33.047Z,14.25
2023-02-26T07:31:00.746Z,12.73
2023-02-26T07:33:28.430Z,10.80
2023-02-26T07:35:56.199Z,8.93
2023-02-26T07:38:24.354Z,12.60
2023-02-26T07:40:57.160Z,14.47
2023-02-26T07:43:25.002Z,13.13
2023-02-26T07:45:53.844Z,20.02
2023-02-26T07:48:21.682Z,18.35
2023-02-26T07:50:53.091Z,19.60
2023-02-26T07:53:22.049Z,21.07
2023-02-26T07:55:49.817Z,22.70
2023-02-26T07:58:18.040Z,21.15
2023-02-26T08:00:46.071Z,17.35
2023-02-26T08:03:14.926Z,14.93
2023-02-26T08:05:42.806Z,11.25
2023-02-26T08:08:10.699Z,14.30
2023-02-26T08:10:42.361Z,18.65
2023-02-26T08:13:10.360Z,24.80
2023-02-26T08:15:37.870Z,16.60
2023-02-26T08:18:06.018Z,23.50
2023-02-26T08:20:33.681Z,21.07
2023-02-26T08:23:01.504Z,23.70
2023-02-26T08:25:29.416Z,20.72
2023-02-26T08:27:58.178Z,23.25
2023-02-26T08:30:26.183Z,21.15
2023-02-26T08:32:54.017Z,20.92
2023-02-26T08:35:22.244Z,20.25
2023-02-26T08:37:50.051Z,19.00
2023-02-26T08:40:18.025Z,20.90
2023-02-26T08:42:45.814Z,15.30
2023-02-26T08:45:14.297Z,12.58
2023-02-26T08:47:55.588Z,13.58
2023-02-26T08:50:13.101Z,13.35
2023-02-26T08:52:40.681Z,12.30
2023-02-26T08:55:09.237Z,14.18
2023-02-26T08:57:37.256Z,13.80
2023-02-26T09:00:08.929Z,17.12
2023-02-26T09:02:37.900Z,17.17
2023-02-26T09:05:06.631Z,13.15
2023-02-26T09:07:34.512Z,13.95
2023-02-26T09:10:02.199Z,16.17
2023-02-26T09:12:30.190Z,23.02
2023-02-26T09:14:58.712Z,21.68
2023-02-26T09:17:26.506Z,14.35
2023-02-26T09:19:54.068Z,13.58
2023-02-26T09:22:22.072Z,15.70
2023-02-26T09:24:50.310Z,15.28
2023-02-26T09:27:18.445Z,13.78
2023-02-26T09:29:46.877Z,14.50
2023-02-26T09:32:18.290Z,11.03
2023-02-26T09:34:46.593Z,10.78
2023-02-26T09:37:14.792Z,11.65
2023-02-26T09:39:42.965Z,11.85
2023-02-26T09:42:30.815Z,12.10
2023-02-26T09:44:59.522Z,10.03
2023-02-26T09:47:36.895Z,15.85
2023-02-26T09:50:22.616Z,11.38
2023-02-26T09:53:13.537Z,9.73
2023-02-26T09:55:48.597Z,10.70
2023-02-26T09:58:30.150Z,11.70
2023-02-26T10:01:32.183Z,43.42
2023-02-26T10:04:19.461Z,25.23
2023-02-26T10:07:21.597Z,20.08
2023-02-26T10:10:04.216Z,16.57
2023-02-26T10:12:40.001Z,20.85
2023-02-26T10:15:23.735Z,17.32
2023-02-26T10:18:13.439Z,19.57
2023-02-26T10:20:58.733Z,14.18
2023-02-26T10:23:37.936Z,20.95
2023-02-26T10:26:25.746Z,21.27
2023-02-26T10:29:14.341Z,15.55
2023-02-26T10:32:11.783Z,13.13
2023-02-26T10:34:47.859Z,20.40
2023-02-26T10:38:02.521Z,17.35
2023-02-26T10:40:41.870Z,12.75
2023-02-26T10:43:30.110Z,11.25
2023-02-26T10:46:32.534Z,14.68
2023-02-26T10:49:25.593Z,14.15
2023-02-26T10:51:54.777Z,16.80
2023-02-26T10:54:33.202Z,14.85
2023-02-26T10:57:01.304Z,16.65
2023-02-26T10:59:29.180Z,20.85
2023-02-26T11:01:58.961Z,18.50
2023-02-26T11:04:28.212Z,10.58
2023-02-26T11:07:02.674Z,26.20
2023-02-26T11:09:35.899Z,21.93
2023-02-26T11:12:15.719Z,24.80
2023-02-26T11:14:48.027Z,44.77
2023-02-26T11:17:31.615Z,39.13
2023-02-26T11:20:08.447Z,96.70
2023-02-26T11:22:37.564Z,54.23
2023-02-26T11:25:07.107Z,23.65
2023-02-26T11:27:38.808Z,17.12
2023-02-26T11:30:20.206Z,27.00
2023-02-26T11:32:53.134Z,21.15
2023-02-26T11:35:26.155Z,16.87
2023-02-26T11:38:02.729Z,20.35
2023-02-26T11:40:42.413Z,25.77
2023-02-26T11:43:19.920Z,30.43
2023-02-26T11:45:57.064Z,14.58
2023-02-26T11:48:41.873Z,14.93
2023-02-26T11:51:18.137Z,13.23
2023-02-26T11:53:54.056Z,17.55
2023-02-26T11:56:41.458Z,22.22
2023-02-26T11:59:23.691Z,20.57
2023-02-26T12:01:53.627Z,15.20
2023-02-26T12:04:27.549Z,15.15
2023-02-26T12:06:56.477Z,17.82
2023-02-26T12:09:27.349Z,21.52
2023-02-26T12:12:21.808Z,23.85
2023-02-26T12:15:04.426Z,11.88
2023-02-26T12:17:58.856Z,16.07
2023-02-26T12:20:55.794Z,12.23
2023-02-26T12:23:47.378Z,13.10
2023-02-26T12:26:25.601Z,9.98
2023-02-26T12:29:21.393Z,12.70
2023-02-26T12:31:57.905Z,10.93
2023-02-26T12:34:54.749Z,10.85
2023-02-26T12:37:34.096Z,14.95
2023-02-26T12:40:50.263Z,14.28
2023-02-26T12:43:52.427Z,15.20
2023-02-26T12:47:05.734Z,15.20
2023-02-26T12:50:18.497Z,12.53
2023-02-26T12:53:21.820Z,10.53
2023-02-26T12:56:20.817Z,13.15
2023-02-26T12:59:09.123Z,16.93
2023-02-26T13:02:08.269Z,13.00
2023-02-26T13:05:01.541Z,13.25
2023-02-26T13:07:41.744Z,20.92
2023-02-26T13:10:36.170Z,20.50
2023-02-26T13:13:21.413Z,15.58
2023-02-26T13:16:03.389Z,16.07
2023-02-26T13:18:48.297Z,17.12
2023-02-26T13:21:30.373Z,15.93
2023-02-26T13:24:06.918Z,18.30
2023-02-26T13:26:36.498Z,15.32
2023-02-26T13:29:10.682Z,17.95
2023-02-26T13:31:50.520Z,16.37
2023-02-26T13:34:39.239Z,18.10
2023-02-26T13:37:27.786Z,23.65
2023-02-26T13:40:17.719Z,18.90
2023-02-26T13:43:00.156Z,21.17
2023-02-26T13:46:15.049Z,21.82
2023-02-26T13:49:01.991Z,21.00
2023-02-26T13:51:41.079Z,27.90
2023-02-26T13:54:23.254Z,34.15
2023-02-26T13:57:17.776Z,30.02
2023-02-26T13:59:54.275Z,31.65
2023-02-26T14:02:49.417Z,34.05
2023-02-26T14:05:37.658Z,27.85
2023-02-26T14:08:31.912Z,21.52
2023-02-26T14:11:25.146Z,21.37
2023-02-26T14:14:20.575Z,19.02
2023-02-26T14:17:06.816Z,23.62
2023-02-26T14:19:51.816Z,23.22
2023-02-26T14:22:33.938Z,17.80
2023-02-26T14:25:37.826Z,12.65
2023-02-26T14:28:27.515Z,16.95
2023-02-26T14:31:10.744Z,21.25
2023-02-26T14:33:48.112Z,19.20
2023-02-26T14:36:30.429Z,19.75
2023-02-26T14:39:04.529Z,25.97
2023-02-26T14:41:41.691Z,21.87
2023-02-26T14:44:21.400Z,22.27
2023-02-26T14:46:51.502Z,21.30
2023-02-26T14:49:30.682Z,20.00
2023-02-26T14:52:35.471Z,21.00
2023-02-26T14:55:47.731Z,18.40
2023-02-26T14:58:51.459Z,19.98
2023-02-26T15:01:57.742Z,23.18
2023-02-26T15:04:43.068Z,21.57
2023-02-26T15:07:28.434Z,20.27
2023-02-26T15:10:04.894Z,19.45
2023-02-26T15:12:58.367Z,19.92
2023-02-26T15:15:31.682Z,21.02
2023-02-26T15:18:13.480Z,21.68
2023-02-26T15:21:02.065Z,27.20
2023-02-26T15:23:43.162Z,25.00
2023-02-26T15:26:18.953Z,26.10
2023-02-26T15:28:50.614Z,22.17
2023-02-26T15:31:42.886Z,24.10
2023-02-26T15:34:13.927Z,27.30
2023-02-26T15:36:53.270Z,30.30
2023-02-26T15:39:23.933Z,30.37
2023-02-26T15:41:54.237Z,26.75
2023-02-26T15:44:31.875Z,25.30
2023-02-26T15:47:02.755Z,33.88
2023-02-26T15:49:37.958Z,37.58
2023-02-26T15:52:08.958Z,24.98
2023-02-26T15:54:52.953Z,22.22
2023-02-26T15:57:24.571Z,23.25
2023-02-26T15:59:57.410Z,23.73
2023-02-26T16:02:32.377Z,26.35
2023-02-26T16:05:03.442Z,36.05
2023-02-26T16:07:31.059Z,33.70
2023-02-26T16:10:04.363Z,53.85
2023-02-26T16:12:40.013Z,46.85
2023-02-26T16:15:15.596Z,33.55
2023-02-26T16:17:46.365Z,26.10
2023-02-26T16:20:19.760Z,24.25
2023-02-26T16:23:02.258Z,28.35
2023-02-26T16:25:50.123Z,23.77
2023-02-26T16:28:27.542Z,23.73
2023-02-26T16:30:59.252Z,29.63
2023-02-26T16:33:31.251Z,28.05
2023-02-26T16:36:17.666Z,30.17
2023-02-26T16:38:51.267Z,27.02
2023-02-26T16:41:25.479Z,24.18
2023-02-26T16:44:00.795Z,22.03
2023-02-26T16:46:43.313Z,21.60
2023-02-26T16:49:16.531Z,27.25
2023-02-26T16:51:45.890Z,22.20
2023-02-26T16:54:25.172Z,40.23
2023-02-26T16:57:22.558Z,42.35
2023-02-26T16:59:55.193Z,22.22
2023-02-26T17:02:33.052Z,15.90
2023-02-26T17:05:12.132Z,20.97
2023-02-26T17:08:08.157Z,17.65
2023-02-26T17:10:47.697Z,16.07
2023-02-26T17:13:19.746Z,18.40
2023-02-26T17:15:48.747Z,23.85
2023-02-26T17:18:17.213Z,28.15
2023-02-26T17:20:45.684Z,39.35
2023-02-26T17:23:16.763Z,34.48
2023-02-26T17:25:49.804Z,33.23
2023-02-26T17:28:24.779Z,39.78
2023-02-26T17:30:54.190Z,36.53
2023-02-26T17:33:22.862Z,33.67
2023-02-26T17:35:58.531Z,42.65
2023-02-26T17:38:27.490Z,31.77
2023-02-26T17:40:57.484Z,25.68
2023-02-26T17:43:25.795Z,28.38
2023-02-26T17:45:54.179Z,27.58
2023-02-26T17:48:23.424Z,31.52
2023-02-26T17:50:57.371Z,34.95
2023-02-26T17:53:31.203Z,20.95
2023-02-26T17:55:59.740Z,38.65
2023-02-26T17:58:33.017Z,29.40
2023-02-26T18:01:03.847Z,24.65
2023-02-26T18:03:31.713Z,27.22
2023-02-26T18:06:00.170Z,30.50
2023-02-26T18:08:32.085Z,32.00
2023-02-26T18:11:01.979Z,18.70
2023-02-26T18:13:30.632Z,21.02
2023-02-26T18:16:01.551Z,16.48
2023-02-26T18:18:31.896Z,22.07
2023-02-26T18:21:00.664Z,21.90
2023-02-26T18:23:29.233Z,20.05
2023-02-26T18:26:04.304Z,19.70
2023-02-26T18:28:38.283Z,25.12
2023-02-26T18:31:08.306Z,19.73
2023-02-26T18:33:40.681Z,18.70
2023-02-26T18:36:14.095Z,16.90
2023-02-26T18:38:49.864Z,14.80
2023-02-26T18:41:18.588Z,16.15
2023-02-26T18:43:46.394Z,15.80
2023-02-26T18:46:14.337Z,31.37
2023-02-26T18:48:41.978Z,47.15
2023-02-26T18:51:10.861Z,16.55
2023-02-26T18:53:39.088Z,23.07
2023-02-26T18:56:07.585Z,21.97
2023-02-26T18:58:48.755Z,26.55
2023-02-26T19:01:16.763Z,21.27
2023-02-26T19:03:44.877Z,15.48
2023-02-26T19:06:15.899Z,17.20
2023-02-26T19:08:43.930Z,20.20
2023-02-26T19:11:11.991Z,17.27
2023-02-26T19:13:39.649Z,16.17
2023-02-26T19:16:09.663Z,18.52
2023-02-26T19:18:37.686Z,23.02
2023-02-26T19:21:05.630Z,19.10
2023-02-26T19:23:33.380Z,18.57
2023-02-26T19:26:01.135Z,23.35
2023-02-26T19:28:28.828Z,27.82
2023-02-26T19:30:58.317Z,25.72
2023-02-26T19:33:26.564Z,19.17
2023-02-26T19:35:54.655Z,16.73
2023-02-26T19:38:23.116Z,17.85
2023-02-26T19:40:51.232Z,17.85
2023-02-26T19:43:19.013Z,18.05
2023-02-26T19:45:46.626Z,18.60
2023-02-26T19:48:14.426Z,19.65
2023-02-26T19:50:42.471Z,24.05
2023-02-26T19:53:11.092Z,26.40
2023-02-26T19:55:39.128Z,41.23
2023-02-26T19:58:07.458Z,42.23
2023-02-26T20:00:37.255Z,45.75
2023-02-26T20:03:05.355Z,45.28
2023-02-26T20:05:36.211Z,45.00
2023-02-26T20:08:06.636Z,50.75
2023-02-26T20:10:34.288Z,51.20
2023-02-26T20:13:03.365Z,49.25
2023-02-26T20:15:31.425Z,41.35
2023-02-26T20:18:02.923Z,39.63
2023-02-26T20:20:31.359Z,115.77
2023-02-26T20:22:59.310Z,84.80
2023-02-26T20:25:28.935Z,56.18
2023-02-26T20:27:56.905Z,43.68
2023-02-26T20:30:26.416Z,37.38
2023-02-26T20:32:54.602Z,36.45
2023-02-26T20:35:24.323Z,34.08
2023-02-26T20:37:52.066Z,35.17
2023-02-26T20:40:20.712Z,41.02
2023-02-26T20:42:48.568Z,43.45
2023-02-26T20:45:17.320Z,42.78
2023-02-26T20:47:59.125Z,39.30
2023-02-26T20:50:27.471Z,36.33
2023-02-26T20:52:59.568Z,39.70
2023-02-26T20:55:27.949Z,38.10
2023-02-26T20:57:55.961Z,38.10
2023-02-26T21:00:24.213Z,40.40
2023-02-26T21:02:52.353Z,37.58
2023-02-26T21:05:20.673Z,38.83
2023-02-26T21:07:50.094Z,38.15
2023-02-26T21:10:19.966Z,43.25
2023-02-26T21:12:47.929Z,42.13
2023-02-26T21:15:15.865Z,28.17
2023-02-26T21:17:44.043Z,28.32
2023-02-26T21:20:15.719Z,23.77
2023-02-26T21:22:45.651Z,19.12
2023-02-26T21:25:13.806Z,15.95
2023-02-26T21:27:42.462Z,12.05
2023-02-26T21:30:16.325Z,20.88
2023-02-26T21:32:44.473Z,17.52
2023-02-26T21:35:15.886Z,26.23
2023-02-26T21:37:44.769Z,33.53
2023-02-26T21:40:14.650Z,37.25
2023-02-26T21:42:44.575Z,23.45
2023-02-26T21:45:13.101Z,33.10
2023-02-26T21:47:41.168Z,24.52
2023-02-26T21:50:12.039Z,27.05
2023-02-26T21:52:39.610Z,20.90
2023-02-26T21:55:11.219Z,15.50
2023-02-26T21:57:39.643Z,14.78
2023-02-26T22:00:11.940Z,13.20
2023-02-26T22:02:44.185Z,12.78
2023-02-26T22:05:12.568Z,12.13
2023-02-26T22:07:40.595Z,14.38
2023-02-26T22:10:10.267Z,12.90
2023-02-26T22:12:38.119Z,14.20
2023-02-26T22:15:07.609Z,10.88
2023-02-26T22:17:35.576Z,9.43
2023-02-26T22:20:09.557Z,10.72
2023-02-26T22:22:40.821Z,9.33
2023-02-26T22:25:11.307Z,13.45
2023-02-26T22:27:39.182Z,13.70
2023-02-26T22:30:09.217Z,15.15
2023-02-26T22:32:36.897Z,14.80
2023-02-26T22:35:05.740Z,15.32
2023-02-26T22:37:33.647Z,16.02
2023-02-26T22:40:03.215Z,17.23
2023-02-26T22:42:30.955Z,16.40
2023-02-26T22:44:59.077Z,15.20
2023-02-26T22:47:26.866Z,14.15
2023-02-26T22:49:54.391Z,13.80
2023-02-26T22:52:22.321Z,21.17
2023-02-26T22:54:50.146Z,16.12
2023-02-26T22:57:19.941Z,10.10
2023-02-26T22:59:48.219Z,10.23
2023-02-26T23:02:15.843Z,4.97
2023-02-26T23:04:43.832Z,6.42
2023-02-26T23:07:12.057Z,4.12
2023-02-26T23:09:40.859Z,7.65
2023-02-26T23:12:09.491Z,6.47
2023-02-26T23:14:37.403Z,3.00
2023-02-26T23:17:05.114Z,4.58
2023-02-26T23:19:33.037Z,4.33
2023-02-26T23:22:01.270Z,3.85
2023-02-26T23:24:29.295Z,4.75
2023-02-26T23:26:57.269Z,4.17
2023-02-26T23:29:24.886Z,5.83
2023-02-26T23:31:52.712Z,4.92
2023-02-26T23:34:20.971Z,4.53
2023-02-26T23:36:48.776Z,4.92
2023-02-26T23:39:16.549Z,4.92
2023-02-26T23:41:44.218Z,7.33
2023-02-26T23:44:11.942Z,7.75
2023-02-26T23:46:39.414Z,5.05
2023-02-26T23:49:08.943Z,4.22
2023-02-26T23:51:37.945Z,5.08
2023-02-26T23:54:06.082Z,5.10
2023-02-26T23:56:33.732Z,8.03
2023-02-26T23:59:02.437Z,8.75
